Time;durP1;ratioP1;P1;durP2;ratioP2;P2;SDS_P1;SDS_P2;PMS_P1;PMS_P2;Temp;Humidity;BMP_temperature;BMP_pressure;BME280_temperature;BME280_humidity;BME280_pressure;Samples;Min_cycle;Max_cycle;Signal;HPM_P1;HPM_P2
2022/12/31 00:00:26;;;;;;;4.47;2.77;;;;;;;17.00;53.94;96627.34;10399708;28;20444;-30
2022/12/31 00:05:29;;;;;;;7.00;3.30;;;;;;;17.01;53.78;96623.97;10398240;28;20296;-31
2022/12/31 00:10:30;;;;;;;5.00;3.35;;;;;;;17.00;53.26;96630.69;10396848;28;20029;-30
2022/12/31 00:15:30;;;;;;;6.33;3.90;;;;;;;17.00;53.58;96637.47;10397747;28;20457;-31
2022/12/31 00:20:31;;;;;;;5.20;3.37;;;;;;;16.99;53.96;96648.41;10413535;27;20296;-30
2022/12/31 00:25:34;;;;;;;6.47;3.70;;;;;;;17.01;53.93;96634.09;10394396;28;20045;-30
2022/12/31 00:30:34;;;;;;;5.82;3.45;;;;;;;16.99;53.69;96661.06;10386422;28;20062;-30
2022/12/31 00:35:35;;;;;;;9.80;3.43;;;;;;;16.98;53.31;96641.69;10395279;28;20062;-31
2022/12/31 00:40:35;;;;;;;5.68;3.60;;;;;;;16.96;53.17;96641.66;10397870;28;20369;-32
2022/12/31 00:45:35;;;;;;;5.20;3.13;;;;;;;16.96;53.77;96661.88;10393549;28;20045;-31
2022/12/31 00:50:36;;;;;;;9.90;3.17;;;;;;;16.92;65.30;96674.50;10394147;28;20033;-30
2022/12/31 00:55:36;;;;;;;5.73;3.57;;;;;;;16.94;65.19;96670.31;10401670;28;20036;-31
2022/12/31 01:00:37;;;;;;;7.27;3.30;;;;;;;16.94;64.48;96667.78;10397525;28;20041;-31
2022/12/31 01:05:37;;;;;;;3.95;2.80;;;;;;;16.95;55.81;96667.78;10395349;28;20288;-31
2022/12/31 01:15:56;;;;;;;4.60;2.80;;;;;;;16.91;54.16;96670.28;10392753;28;20112;-31
2022/12/31 01:21:02;;;;;;;4.90;2.80;;;;;;;16.94;53.99;96667.78;10394748;28;20032;-30
2022/12/31 01:26:05;;;;;;;4.28;2.75;;;;;;;16.93;53.85;96687.16;10397470;28;20037;-30
2022/12/31 01:31:08;;;;;;;5.03;2.65;;;;;;;16.90;53.64;96699.78;10396455;28;20038;-31
2022/12/31 01:36:21;;;;;;;5.63;2.97;;;;;;;16.93;53.75;96686.31;10401213;28;20121;-30
2022/12/31 01:41:36;;;;;;;3.45;2.47;;;;;;;16.92;54.00;96700.63;10403544;28;20037;-30
2022/12/31 01:46:48;;;;;;;4.47;2.30;;;;;;;16.88;53.99;96700.59;10395753;28;20156;-30
2022/12/31 01:51:55;;;;;;;4.90;2.88;;;;;;;16.92;54.30;96685.47;10396104;28;20073;-31
2022/12/31 01:56:56;;;;;;;3.67;2.80;;;;;;;16.91;54.14;96713.28;10403354;28;20053;-31
2022/12/31 02:01:58;;;;;;;4.18;2.65;;;;;;;16.91;53.74;96733.50;10400679;28;20042;-31
2022/12/31 02:07:06;;;;;;;7.90;3.13;;;;;;;16.87;65.82;96727.59;10403963;28;20026;-30
2022/12/31 02:12:09;;;;;;;9.00;3.70;;;;;;;16.85;66.45;96718.28;10399499;28;20124;-30
2022/12/31 02:17:41;;;;;;;5.35;2.72;;;;;;;16.95;65.86;96720.03;10400500;28;20037;-31
2022/12/31 02:23:33;;;;;;;6.18;2.45;;;;;;;16.93;57.12;96721.72;10392040;28;20042;-31
2022/12/31 02:29:03;;;;;;;6.32;2.78;;;;;;;16.90;55.31;96749.53;10432911;28;20041;-31
2022/12/31 02:34:12;;;;;;;5.82;2.95;;;;;;;16.90;54.78;96752.06;10407716;28;20072;-30
2022/12/31 02:39:13;;;;;;;3.95;2.30;;;;;;;16.89;54.26;96735.19;10397697;28;20033;-30
2022/12/31 02:44:31;;;;;;;5.25;2.75;;;;;;;16.85;54.42;96714.09;10402186;28;20113;-31
2022/12/31 02:49:40;;;;;;;4.20;2.65;;;;;;;16.88;54.90;96715.78;10496121;27;20031;-30
2022/12/31 02:54:55;;;;;;;4.05;2.30;;;;;;;16.81;53.74;96722.47;10393617;28;20112;-30
2022/12/31 03:05:30;;;;;;;4.22;3.22;;;;;;;16.88;54.83;96723.34;10397099;28;20510;-31
2022/12/31 03:10:31;;;;;;;14.88;4.35;;;;;;;16.91;54.40;96724.22;10397992;28;20483;-30
2022/12/31 03:15:33;;;;;;;3.10;1.95;;;;;;;16.85;54.53;96718.28;10393941;28;20049;-30
2022/12/31 03:25:57;;;;;;;6.53;2.72;;;;;;;16.89;65.35;96709.91;10396196;28;20051;-31
2022/12/31 03:31:00;;;;;;;4.78;2.45;;;;;;;16.91;66.01;96714.13;10398239;28;20635;-31
2022/12/31 03:36:05;;;;;;;7.95;2.85;;;;;;;16.96;64.21;96724.25;10394025;28;20037;-32
2022/12/31 03:41:09;;;;;;;4.50;2.70;;;;;;;16.93;56.83;96709.94;10396774;28;20034;-30
2022/12/31 03:46:09;;;;;;;7.20;2.40;;;;;;;16.92;55.10;96718.31;10394987;28;20062;-31
2022/12/31 03:51:09;;;;;;;5.37;3.00;;;;;;;16.92;54.96;96735.19;10396936;28;20527;-30
2022/12/31 03:56:10;;;;;;;4.97;2.50;;;;;;;16.90;54.59;96735.19;10392837;28;20480;-30
2022/12/31 04:01:10;;;;;;;4.57;2.33;;;;;;;16.89;54.73;96751.19;10396064;28;20383;-30
2022/12/31 04:06:10;;;;;;;4.33;2.07;;;;;;;16.89;55.04;96736.03;10398352;28;20408;-30
2022/12/31 04:11:11;;;;;;;2.90;2.13;;;;;;;16.88;53.98;96721.69;10395643;28;20476;-30
2022/12/31 04:16:11;;;;;;;4.97;2.03;;;;;;;16.88;54.34;96728.41;10395172;28;20025;-30
2022/12/31 04:21:11;;;;;;;4.07;2.50;;;;;;;16.88;54.36;96743.59;10395616;28;20034;-32
2022/12/31 04:26:12;;;;;;;3.10;2.17;;;;;;;16.89;54.37;96745.31;10392677;28;20045;-30
2022/12/31 04:31:12;;;;;;;5.10;2.33;;;;;;;16.87;53.96;96742.75;10397872;28;20037;-31
2022/12/31 04:36:13;;;;;;;13.32;2.30;;;;;;;16.80;54.05;96725.84;10395212;28;20033;-30
2022/12/31 04:41:16;;;;;;;7.43;2.63;;;;;;;16.90;64.76;96752.06;10396648;28;20042;-31
2022/12/31 04:46:18;;;;;;;4.90;2.60;;;;;;;16.84;66.09;96764.66;10440135;27;20035;-30
2022/12/31 04:51:20;;;;;;;4.20;2.35;;;;;;;16.90;65.99;96767.22;10445097;27;20034;-31
2022/12/31 04:56:21;;;;;;;5.90;2.50;;;;;;;16.92;63.14;96766.38;10390074;28;20034;-30
2022/12/31 05:01:21;;;;;;;3.65;2.03;;;;;;;16.92;58.76;96757.97;10399499;28;20038;-30
2022/12/31 05:06:22;;;;;;;5.25;2.50;;;;;;;16.89;58.18;96763.84;10403109;28;20045;-31
2022/12/31 05:11:23;;;;;;;3.17;1.98;;;;;;;16.92;55.20;96763.84;10405029;28;20037;-32
2022/12/31 05:16:23;;;;;;;3.50;2.03;;;;;;;16.92;54.56;96757.97;10399400;28;20442;-30
2022/12/31 05:21:23;;;;;;;3.80;2.23;;;;;;;16.91;54.51;96763.84;10402108;28;20295;-31
2022/12/31 05:26:24;;;;;;;2.57;1.50;;;;;;;16.91;54.48;96753.75;10399815;28;20840;-30
2022/12/31 05:31:24;;;;;;;3.03;1.90;;;;;;;16.90;54.63;96762.16;10404357;28;20288;-30
2022/12/31 05:36:25;;;;;;;3.22;2.10;;;;;;;16.90;54.28;96732.66;10400186;28;20034;-30
2022/12/31 05:41:25;;;;;;;3.80;1.80;;;;;;;16.89;54.29;96742.78;10403564;28;20040;-30
2022/12/31 05:46:25;;;;;;;2.67;1.53;;;;;;;16.90;54.23;96767.22;10403358;28;20034;-31
2022/12/31 05:51:26;;;;;;;4.00;2.27;;;;;;;16.84;54.73;96789.94;10399850;28;20037;-30
2022/12/31 05:56:26;;;;;;;2.60;1.43;;;;;;;16.87;54.09;96795.00;10396352;28;20069;-30
2022/12/31 06:01:27;;;;;;;3.07;1.90;;;;;;;16.89;65.48;96795.88;10399527;28;20025;-31
2022/12/31 06:06:27;;;;;;;4.73;2.70;;;;;;;16.87;65.73;96789.94;10401331;28;20276;-31
2022/12/31 06:11:28;;;;;;;2.80;1.80;;;;;;;16.91;64.99;96789.16;10398821;28;20758;-30
2022/12/31 06:16:28;;;;;;;6.37;2.40;;;;;;;16.92;60.58;96785.78;10398250;28;20419;-31
2022/12/31 06:21:29;;;;;;;2.43;1.70;;;;;;;16.94;56.62;96784.97;10400232;28;20284;-31
2022/12/31 06:26:29;;;;;;;1.80;1.45;;;;;;;16.95;55.99;96781.59;10398795;28;20318;-32
2022/12/31 06:31:29;;;;;;;7.00;2.30;;;;;;;16.95;55.44;96780.72;10401979;28;20052;-30
2022/12/31 06:36:30;;;;;;;3.00;2.03;;;;;;;16.96;55.74;96785.81;10398558;28;20078;-30
2022/12/31 06:41:30;;;;;;;2.00;1.60;;;;;;;16.97;55.46;96784.09;10402154;28;20036;-30
2022/12/31 06:46:30;;;;;;;4.70;1.80;;;;;;;16.94;54.69;96784.97;10402078;28;20584;-30
2022/12/31 06:51:31;;;;;;;3.17;1.60;;;;;;;16.94;55.15;96794.22;10397950;28;20030;-30
2022/12/31 06:56:32;;;;;;;2.25;1.65;;;;;;;16.96;54.87;96810.25;10398935;28;20531;-30
2022/12/31 07:02:20;;;;;;;3.17;1.90;;;;;;;16.97;54.37;96816.97;10388447;28;20072;-32
2022/12/31 07:07:31;;;;;;;1.58;1.48;;;;;;;16.96;54.58;96817.81;10396549;28;20077;-30
2022/12/31 07:12:51;;;;;;;2.30;1.50;;;;;;;16.95;54.37;96822.06;10401270;28;20483;-31
2022/12/31 07:18:18;;;;;;;1.90;1.38;;;;;;;16.97;56.36;96822.91;10393636;28;20032;-30
2022/12/31 07:23:19;;;;;;;;;;;;;;;16.92;64.82;96816.13;10393199;28;20033;-31
2022/12/31 07:28:39;;;;;;;2.75;1.60;;;;;;;16.92;65.12;96826.25;10399301;28;19917;-30
2022/12/31 07:34:09;;;;;;;2.67;1.60;;;;;;;16.92;57.00;96827.06;10394390;28;20048;-31
2022/12/31 07:39:38;;;;;;;2.42;1.73;;;;;;;16.95;56.83;96856.59;10399653;28;20414;-32
2022/12/31 07:45:13;;;;;;;3.08;1.63;;;;;;;16.97;56.61;96859.97;10392741;28;20050;-30
2022/12/31 07:50:16;;;;;;;2.60;1.77;;;;;;;16.96;56.56;96843.09;10396100;28;20042;-31
2022/12/31 07:55:16;;;;;;;2.47;1.98;;;;;;;16.98;54.70;96846.53;10395119;28;20047;-31
2022/12/31 08:00:17;;;;;;;2.00;1.70;;;;;;;16.98;54.17;96831.34;10396758;28;20075;-30
2022/12/31 08:05:32;;;;;;;2.58;1.95;;;;;;;16.97;53.86;96827.09;10395438;28;20369;-30
2022/12/31 08:11:00;;;;;;;4.28;1.48;;;;;;;16.96;53.59;96833.84;10395299;28;20034;-30
2022/12/31 08:16:01;;;;;;;4.03;1.85;;;;;;;16.90;53.95;96855.72;10393268;28;20037;-32
2022/12/31 08:21:16;;;;;;;7.28;1.80;;;;;;;16.93;56.08;96853.22;10397758;28;20045;-30
2022/12/31 08:26:36;;;;;;;2.67;1.80;;;;;;;16.85;54.23;96848.09;10389862;28;20041;-30
2022/12/31 08:31:55;;;;;;;7.88;1.90;;;;;;;16.92;55.13;96843.94;10395262;28;20487;-30
2022/12/31 08:37:19;;;;;;;2.95;1.77;;;;;;;16.94;61.58;96865.03;10392187;28;20041;-31
2022/12/31 08:42:23;;;;;;;2.75;2.08;;;;;;;16.97;55.89;96867.56;10400202;28;20090;-30
2022/12/31 08:47:34;;;;;;;1.95;1.40;;;;;;;16.89;56.73;96861.63;10398225;28;20033;-31
2022/12/31 08:52:35;;;;;;;5.20;1.52;;;;;;;16.83;57.48;96861.56;10394608;28;20063;-31
2022/12/31 08:57:45;;;;;;;3.22;1.30;;;;;;;16.85;58.54;96875.06;10394159;28;20037;-30
2022/12/31 09:03:07;;;;;;;2.13;1.40;;;;;;;16.81;58.16;96870.81;10388438;28;20444;-30
2022/12/31 09:08:30;;;;;;;1.80;1.23;;;;;;;16.76;56.41;96864.88;10393823;28;20075;-30
2022/12/31 09:13:46;;;;;;;2.55;1.20;;;;;;;16.82;56.20;96865.75;10423765;28;20045;-30
2022/12/31 09:18:47;;;;;;;2.03;1.30;;;;;;;16.81;55.42;96863.25;10393396;28;20049;-30
2022/12/31 09:23:47;;;;;;;2.10;1.10;;;;;;;16.78;56.43;96853.09;10392312;28;20040;-31
2022/12/31 09:29:08;;;;;;;1.85;1.10;;;;;;;16.77;55.64;96844.66;10394983;28;20282;-31
2022/12/31 09:34:19;;;;;;;1.63;1.05;;;;;;;16.77;55.88;96849.72;10396957;28;20034;-30
2022/12/31 09:39:26;;;;;;;7.90;1.05;;;;;;;16.78;59.31;96860.66;10390807;28;20045;-30
2022/12/31 09:45:08;;;;;;;2.65;0.85;;;;;;;16.80;58.86;96864.03;10394568;28;20042;-31
2022/12/31 09:50:32;;;;;;;2.40;1.20;;;;;;;16.80;56.63;96866.56;10401332;28;20041;-31
2022/12/31 09:55:47;;;;;;;3.65;1.08;;;;;;;16.80;59.98;96871.63;10405878;28;20122;-31
2022/12/31 10:01:09;;;;;;;3.65;1.33;;;;;;;16.84;59.42;96878.44;10400714;28;20620;-30
2022/12/31 10:06:36;;;;;;;3.13;1.30;;;;;;;16.75;55.74;96858.13;10400817;28;20059;-28
2022/12/31 10:12:03;;;;;;;2.38;1.17;;;;;;;16.79;56.61;96867.41;10399889;28;20034;-28
2022/12/31 10:17:14;;;;;;;2.47;0.90;;;;;;;16.78;59.15;96865.72;10403773;28;20514;-28
2022/12/31 10:22:32;;;;;;;4.35;2.00;;;;;;;16.77;59.44;96856.44;10395909;28;20067;-28
2022/12/31 10:28:01;;;;;;;6.25;2.42;;;;;;;16.75;58.05;96851.38;10398500;28;20037;-27
2022/12/31 10:33:17;;;;;;;4.03;1.50;;;;;;;16.75;57.58;96848.84;10401026;28;20025;-27
2022/12/31 10:38:41;;;;;;;5.43;1.95;;;;;;;16.75;59.30;96832.84;10398958;28;20073;-30
2022/12/31 10:43:47;;;;;;;8.77;2.08;;;;;;;16.78;59.56;96830.31;10398099;28;20041;-30
2022/12/31 10:49:25;;;;;;;4.38;1.60;;;;;;;16.76;57.60;96821.88;10400371;28;20101;-30
2022/12/31 10:54:59;;;;;;;2.88;1.52;;;;;;;16.75;58.96;96822.72;10400131;28;20570;-30
2022/12/31 11:00:18;;;;;;;5.63;1.77;;;;;;;16.76;58.01;96809.25;10397269;28;20311;-31
2022/12/31 11:05:49;;;;;;;6.43;2.25;;;;;;;16.81;59.00;96810.97;10398518;28;20108;-30
2022/12/31 11:10:59;;;;;;;4.43;2.08;;;;;;;16.73;58.66;96799.94;10397603;28;20033;-31
2022/12/31 11:16:38;;;;;;;7.60;2.35;;;;;;;16.76;61.37;96801.66;10395916;28;20454;-30
2022/12/31 11:22:03;;;;;;;7.88;1.73;;;;;;;16.83;61.61;96790.78;10486885;28;20044;-30
2022/12/31 11:27:34;;;;;;;4.90;1.75;;;;;;;16.76;60.08;96794.06;10408411;28;20117;-29
2022/12/31 11:32:53;;;;;;;6.07;1.77;;;;;;;16.81;60.71;96793.28;10423637;27;20100;-30
2022/12/31 11:38:23;;;;;;;3.55;1.52;;;;;;;16.78;60.36;96782.28;10398712;28;20029;-31
2022/12/31 11:43:34;;;;;;;11.98;2.35;;;;;;;16.81;58.76;96762.09;10396683;28;20033;-30
2022/12/31 11:49:05;;;;;;;5.55;1.30;;;;;;;16.82;58.68;96751.97;10389658;28;20056;-30
2022/12/31 11:54:24;;;;;;;7.65;1.92;;;;;;;16.80;58.00;96751.13;10397684;28;20108;-30
2022/12/31 11:59:24;;;;;;;5.43;1.90;;;;;;;16.83;58.50;96740.19;10400791;28;20096;-30
2022/12/31 12:04:25;;;;;;;20.20;3.15;;;;;;;16.81;60.21;96736.81;10395592;28;20127;-31
2022/12/31 12:09:31;;;;;;;8.68;1.63;;;;;;;16.80;58.60;96730.03;10395596;28;20037;-29
2022/12/31 12:14:35;;;;;;;6.03;1.37;;;;;;;16.74;60.26;96720.75;10392774;28;20418;-31
2022/12/31 12:19:42;;;;;;;5.68;1.45;;;;;;;16.78;59.57;96736.78;10389075;28;20037;-30
2022/12/31 12:24:52;;;;;;;7.57;2.00;;;;;;;16.76;60.56;96725.81;10395576;28;20501;-31
2022/12/31 12:29:52;;;;;;;4.45;1.48;;;;;;;16.71;60.90;96717.34;10398440;28;20617;-30
2022/12/31 12:34:52;;;;;;;6.20;1.57;;;;;;;16.76;60.94;96708.13;10412023;27;20035;-30
2022/12/31 12:40:16;;;;;;;9.30;2.97;;;;;;;16.78;60.74;96711.50;10458209;27;20034;-30
2022/12/31 12:45:21;;;;;;;3.42;1.15;;;;;;;16.85;64.13;96703.97;10398314;28;20035;-31
2022/12/31 12:50:31;;;;;;;3.88;1.10;;;;;;;16.82;63.57;96703.13;10394234;28;20086;-30
2022/12/31 12:55:50;;;;;;;2.80;1.30;;;;;;;16.74;62.31;96694.63;10394664;28;20037;-30
2022/12/31 13:01:22;;;;;;;13.00;1.75;;;;;;;16.72;62.26;96691.25;10390569;28;20319;-30
2022/12/31 13:07:10;;;;;;;6.78;2.85;;;;;;;16.70;62.36;96692.91;10392680;28;20038;-30
2022/12/31 13:12:40;;;;;;;3.33;1.23;;;;;;;16.74;60.79;96694.63;10328091;28;20041;-31
2022/12/31 13:18:12;;;;;;;7.15;1.33;;;;;;;16.79;60.83;96695.50;10387989;28;20034;-31
2022/12/31 13:23:36;;;;;;;4.53;1.58;;;;;;;16.77;61.46;96692.97;10403017;28;20071;-30
2022/12/31 13:28:41;;;;;;;2.67;1.10;;;;;;;16.74;60.82;96702.22;10461476;27;20109;-30
2022/12/31 13:33:47;;;;;;;7.63;1.42;;;;;;;16.77;59.05;96699.69;10428521;27;20136;-31
2022/12/31 13:38:52;;;;;;;12.27;1.43;;;;;;;16.78;58.84;96704.78;10400305;28;20048;-32
2022/12/31 13:44:03;;;;;;;6.72;1.67;;;;;;;16.76;60.62;96710.66;10404143;28;20052;-30
2022/12/31 13:49:13;;;;;;;5.85;1.30;;;;;;;16.75;60.67;96714.03;10400192;28;20025;-30
2022/12/31 13:54:29;;;;;;;6.90;1.20;;;;;;;16.75;61.12;96721.59;10403600;28;20045;-30
2022/12/31 13:59:38;;;;;;;9.20;2.40;;;;;;;16.79;64.36;96720.78;10401929;28;20033;-30
2022/12/31 14:04:47;;;;;;;4.35;1.30;;;;;;;16.81;64.93;96735.13;10403487;28;20025;-30
2022/12/31 14:09:48;;;;;;;7.68;1.88;;;;;;;16.83;64.77;96735.16;10398792;28;20045;-30
2022/12/31 14:15:03;;;;;;;3.28;1.48;;;;;;;16.69;64.00;96725.78;10396192;28;20515;-30
2022/12/31 14:20:25;;;;;;;2.70;0.85;;;;;;;16.73;63.01;96748.56;10401154;28;20051;-30
2022/12/31 14:25:31;;;;;;;2.78;1.05;;;;;;;16.70;62.24;96753.56;10397147;28;20045;-30
2022/12/31 14:30:39;;;;;;;6.30;1.40;;;;;;;16.69;62.50;96759.47;10401676;28;20554;-30
2022/12/31 14:35:58;;;;;;;4.18;1.35;;;;;;;16.68;62.42;96760.31;10391296;28;20040;-31
2022/12/31 14:41:30;;;;;;;4.45;1.00;;;;;;;16.65;62.28;96760.28;10401184;28;20064;-30
2022/12/31 14:47:04;;;;;;;1.65;1.00;;;;;;;16.63;61.80;96767.00;10396794;28;20491;-30
2022/12/31 14:52:20;;;;;;;3.55;1.20;;;;;;;16.69;60.41;96766.22;10398816;28;20037;-31
2022/12/31 14:57:24;;;;;;;3.15;1.20;;;;;;;16.70;60.83;96778.84;10397914;28;20136;-30
2022/12/31 15:02:32;;;;;;;3.03;1.13;;;;;;;16.69;62.36;96782.22;10398092;28;20587;-31
2022/12/31 15:07:48;;;;;;;2.15;1.13;;;;;;;16.69;60.79;96777.16;10401667;28;20166;-31
2022/12/31 15:13:00;;;;;;;2.65;1.00;;;;;;;16.71;61.01;96769.59;10401116;28;20128;-30
2022/12/31 15:18:35;;;;;;;1.10;0.70;;;;;;;16.74;64.34;96771.31;10397692;28;20053;-30
2022/12/31 15:23:39;;;;;;;2.35;1.15;;;;;;;16.79;65.12;96779.78;10398617;28;20094;-30
2022/12/31 15:28:39;;;;;;;1.23;0.70;;;;;;;16.74;64.79;96770.47;10396171;28;20048;-30
2022/12/31 15:34:00;;;;;;;2.42;0.98;;;;;;;16.71;64.20;96767.91;10399940;28;20032;-30
2022/12/31 15:39:10;;;;;;;2.58;0.70;;;;;;;16.69;63.83;96772.09;10396411;28;20100;-30
2022/12/31 15:44:28;;;;;;;4.20;0.90;;;;;;;16.66;63.70;96784.75;10391612;28;20040;-30
2022/12/31 15:49:37;;;;;;;1.63;0.95;;;;;;;16.65;62.26;96783.03;10396404;28;20098;-29
2022/12/31 15:54:43;;;;;;;1.63;0.70;;;;;;;16.68;61.93;96788.13;10393167;28;20045;-31
2022/12/31 15:59:44;;;;;;;2.47;1.15;;;;;;;16.67;62.52;96803.25;10395925;28;20044;-30
2022/12/31 16:04:44;;;;;;;3.67;0.65;;;;;;;16.66;62.01;96804.97;10395681;28;20408;-30
2022/12/31 16:09:57;;;;;;;2.38;0.88;;;;;;;16.67;61.65;96815.06;10397302;28;20041;-31
2022/12/31 16:14:58;;;;;;;2.03;0.68;;;;;;;16.67;61.85;96809.19;10394994;28;20078;-30
2022/12/31 16:20:01;;;;;;;2.28;0.80;;;;;;;16.67;61.02;96820.13;10398079;28;20077;-30
2022/12/31 16:25:04;;;;;;;1.83;1.02;;;;;;;16.67;61.02;96814.22;10394462;28;20061;-30
2022/12/31 16:30:20;;;;;;;2.13;0.68;;;;;;;16.68;61.09;96810.88;10395602;28;20052;-30
2022/12/31 16:35:31;;;;;;;0.80;0.52;;;;;;;16.72;63.45;96809.22;10390309;28;20586;-30
2022/12/31 16:40:32;;;;;;;2.25;0.88;;;;;;;16.71;65.25;96800.75;10397130;28;20064;-31
2022/12/31 16:45:35;;;;;;;2.10;1.00;;;;;;;16.79;65.19;96814.31;10390434;28;20034;-30
2022/12/31 16:50:36;;;;;;;2.45;0.73;;;;;;;16.74;64.58;96811.75;10394578;28;20033;-30
2022/12/31 16:55:37;;;;;;;1.23;0.70;;;;;;;16.73;64.10;96827.75;10393554;28;20038;-30
2022/12/31 17:00:39;;;;;;;1.90;0.88;;;;;;;16.69;62.87;96821.84;10395747;28;20072;-30
2022/12/31 17:06:13;;;;;;;2.30;0.70;;;;;;;16.67;62.41;96814.22;10393735;28;20068;-31
2022/12/31 17:11:29;;;;;;;1.73;0.80;;;;;;;16.67;62.58;96811.69;10390492;28;20037;-32
2022/12/31 17:16:29;;;;;;;1.60;0.85;;;;;;;16.65;61.54;96820.97;10391769;28;20448;-31
2022/12/31 17:21:31;;;;;;;3.95;1.60;;;;;;;16.68;61.82;96820.97;10395466;28;20046;-29
2022/12/31 17:26:34;;;;;;;1.98;0.90;;;;;;;16.67;62.01;96808.31;10392322;28;20033;-30
2022/12/31 17:31:37;;;;;;;0.80;0.60;;;;;;;16.70;60.95;96819.31;10394863;28;20190;-29
2022/12/31 17:36:54;;;;;;;0.98;0.65;;;;;;;16.65;59.72;96820.97;10393132;28;20033;-30
2022/12/31 17:41:56;;;;;;;2.08;1.00;;;;;;;16.68;59.36;96818.44;10389188;28;20077;-29
2022/12/31 17:46:57;;;;;;;1.35;0.60;;;;;;;16.60;60.55;96801.53;10391472;28;20037;-30
2022/12/31 17:51:57;;;;;;;1.10;0.50;;;;;;;16.70;59.16;96821.00;10393715;28;20026;-30
2022/12/31 17:56:58;;;;;;;0.93;0.60;;;;;;;16.74;64.46;96829.44;10394974;28;20490;-31
2022/12/31 18:02:03;;;;;;;2.30;0.70;;;;;;;16.72;65.44;96825.25;10393288;28;20292;-32
2022/12/31 18:07:04;;;;;;;2.00;0.82;;;;;;;16.78;65.12;96830.31;10398011;28;20657;-30
2022/12/31 18:12:05;;;;;;;1.40;0.97;;;;;;;16.67;64.84;96824.34;10407038;28;20346;-29
2022/12/31 18:17:18;;;;;;;2.33;0.80;;;;;;;16.71;63.96;96831.09;10400460;28;20380;-30
2022/12/31 18:22:19;;;;;;;1.27;0.73;;;;;;;16.69;63.41;96831.94;10394475;28;20604;-30
2022/12/31 18:27:20;;;;;;;2.90;0.55;;;;;;;16.67;63.38;96814.22;10402862;28;20041;-30
2022/12/31 18:32:26;;;;;;;1.20;0.77;;;;;;;16.69;62.00;96837.84;10402341;28;20033;-31
2022/12/31 18:37:28;;;;;;;0.70;0.50;;;;;;;16.67;63.86;96839.50;10398095;28;20319;-30
2022/12/31 18:42:28;;;;;;;0.80;0.65;;;;;;;16.70;62.75;96851.34;10401688;28;20060;-29
2022/12/31 18:47:29;;;;;;;0.93;0.60;;;;;;;16.69;62.75;96847.94;10397239;28;20044;-30
2022/12/31 18:52:29;;;;;;;2.05;0.57;;;;;;;16.69;61.93;96847.94;10399506;28;20395;-31
2022/12/31 18:57:29;;;;;;;2.03;1.00;;;;;;;16.64;62.14;96843.69;10394576;28;20045;-29
2022/12/31 19:02:30;;;;;;;1.67;0.60;;;;;;;16.67;62.32;96846.22;10398236;28;20089;-30
2022/12/31 19:07:30;;;;;;;1.27;0.60;;;;;;;16.63;60.04;96847.88;10399960;28;20040;-30
2022/12/31 19:12:30;;;;;;;0.93;0.60;;;;;;;16.69;60.01;96868.16;10397387;28;20397;-32
2022/12/31 19:17:30;;;;;;;1.00;0.60;;;;;;;16.74;65.58;96862.31;10396618;28;20511;-30
2022/12/31 19:22:31;;;;;;;1.00;0.57;;;;;;;16.77;65.22;96875.84;10394454;28;20510;-30
2022/12/31 19:27:31;;;;;;;1.10;0.60;;;;;;;16.72;64.88;96850.53;10400454;28;20033;-31
2022/12/31 19:32:32;;;;;;;1.80;0.80;;;;;;;16.67;64.57;96847.09;10400381;28;20062;-30
2022/12/31 19:37:32;;;;;;;0.70;0.63;;;;;;;16.71;64.12;96871.56;10397117;28;20424;-29
2022/12/31 19:42:32;;;;;;;0.50;0.50;;;;;;;16.68;63.85;96876.59;10394895;28;20040;-30
2022/12/31 19:47:33;;;;;;;1.33;0.80;;;;;;;16.67;63.03;96862.25;10395806;28;20025;-31
2022/12/31 19:52:33;;;;;;;1.20;0.60;;;;;;;16.67;63.67;96855.50;10396378;28;20030;-30
2022/12/31 19:57:33;;;;;;;1.57;0.60;;;;;;;16.67;64.07;96858.03;10397583;28;20038;-30
2022/12/31 20:02:34;;;;;;;0.33;0.30;;;;;;;16.67;63.42;96864.78;10407847;28;20042;-31
2022/12/31 20:07:34;;;;;;;0.70;0.60;;;;;;;16.68;62.47;96863.94;10396705;28;20303;-30
2022/12/31 20:12:35;;;;;;;0.90;0.50;;;;;;;16.67;61.44;96863.09;10395848;28;20033;-30
2022/12/31 20:17:35;;;;;;;0.77;0.40;;;;;;;16.64;60.88;96864.78;10392999;28;20037;-30
2022/12/31 20:22:36;;;;;;;1.05;0.80;;;;;;;16.67;60.25;96870.66;10394748;28;20402;-30
2022/12/31 20:27:37;;;;;;;1.60;0.70;;;;;;;16.68;61.59;96881.66;10396287;28;20110;-31
2022/12/31 20:32:37;;;;;;;1.35;0.80;;;;;;;16.66;61.29;96878.25;10401467;28;20037;-30
2022/12/31 20:37:38;;;;;;;1.07;0.57;;;;;;;16.73;65.61;96872.44;10395327;28;20036;-31
2022/12/31 20:42:39;;;;;;;0.80;0.60;;;;;;;16.75;65.47;96880.88;10394909;28;20311;-29
2022/12/31 20:47:39;;;;;;;1.77;1.40;;;;;;;16.72;65.46;96877.47;10396626;28;20025;-30
2022/12/31 20:52:41;;;;;;;0.88;0.60;;;;;;;16.68;64.50;96876.59;10397351;28;20036;-30
2022/12/31 20:57:42;;;;;;;1.20;0.70;;;;;;;16.67;64.33;96878.25;10392211;28;20094;-30
2022/12/31 21:02:42;;;;;;;1.02;0.52;;;;;;;16.68;64.46;96884.16;10406028;28;20033;-30
2022/12/31 21:07:42;;;;;;;1.20;0.80;;;;;;;16.61;64.25;96874.84;10393412;28;20102;-30
2022/12/31 21:12:43;;;;;;;0.73;0.53;;;;;;;16.67;63.67;96885.00;10395304;28;20044;-30
2022/12/31 21:17:44;;;;;;;1.42;0.68;;;;;;;16.66;64.11;96890.91;10400080;28;20048;-30
2022/12/31 21:22:44;;;;;;;0.73;0.50;;;;;;;16.66;63.91;96910.25;10391389;28;20404;-31
2022/12/31 21:27:45;;;;;;;0.50;0.40;;;;;;;16.66;64.13;96931.34;10396945;28;20041;-30
2022/12/31 21:32:45;;;;;;;0.80;0.50;;;;;;;16.61;63.48;96929.59;10400421;28;20181;-30
2022/12/31 21:37:46;;;;;;;0.75;0.52;;;;;;;16.65;61.79;96937.25;10394018;28;20064;-30
2022/12/31 21:42:46;;;;;;;1.53;0.83;;;;;;;16.66;63.01;96958.28;10395942;28;20064;-30
2022/12/31 21:53:05;;;;;;;0.60;0.50;;;;;;;16.65;65.12;96981.88;10395806;28;20723;-30
2022/12/31 21:58:06;;;;;;;1.30;0.60;;;;;;;16.70;65.71;96991.19;10399165;28;20120;-30
2022/12/31 22:03:28;;;;;;;0.93;0.53;;;;;;;16.73;65.70;96990.41;10410660;28;20038;-30
2022/12/31 22:08:29;;;;;;;1.00;0.90;;;;;;;16.66;65.30;96999.59;10399746;28;20711;-30
2022/12/31 22:13:30;;;;;;;1.58;0.60;;;;;;;16.65;64.73;96997.91;10399684;28;20033;-30
2022/12/31 22:18:32;;;;;;;0.88;0.75;;;;;;;16.65;64.62;97002.09;10407204;28;20064;-30
2022/12/31 22:23:34;;;;;;;1.00;0.52;;;;;;;16.65;64.72;97010.53;10395795;28;20064;-30
2022/12/31 22:28:38;;;;;;;1.08;0.77;;;;;;;16.64;64.60;97016.44;10400223;28;20134;-30
2022/12/31 22:33:38;;;;;;;0.65;0.60;;;;;;;16.64;63.73;97015.56;10403390;28;20037;-29
2022/12/31 22:38:39;;;;;;;1.00;0.60;;;;;;;16.62;64.47;97028.19;10402098;28;20047;-30
2022/12/31 22:43:48;;;;;;;0.82;0.50;;;;;;;16.64;64.02;97035.78;10401774;28;20295;-30
2022/12/31 22:48:49;;;;;;;1.60;0.52;;;;;;;16.63;63.61;97045.03;10404446;28;20538;-30
2022/12/31 22:53:50;;;;;;;1.17;0.73;;;;;;;16.62;63.64;97038.28;10398090;28;20040;-30
2022/12/31 22:58:50;;;;;;;0.93;0.50;;;;;;;16.62;62.80;97053.47;10398683;28;20038;-30
2022/12/31 23:03:52;;;;;;;0.63;0.60;;;;;;;16.62;64.66;97058.50;10408789;28;20109;-30
2022/12/31 23:24:53;;;;;;;0.88;0.60;;;;;;;16.69;65.59;97055.25;10396275;28;20105;-31
2022/12/31 23:29:53;;;;;;;0.57;0.53;;;;;;;16.63;65.07;97062.75;10404471;28;20088;-30
2022/12/31 23:34:54;;;;;;;1.33;0.70;;;;;;;16.58;64.34;97051.75;10398009;28;20333;-30
2022/12/31 23:39:54;;;;;;;0.77;0.70;;;;;;;16.62;64.72;97060.22;10399804;28;20040;-30
2022/12/31 23:44:55;;;;;;;0.83;0.73;;;;;;;16.62;64.52;97076.22;10402323;28;20085;-31
2022/12/31 23:49:55;;;;;;;1.03;0.70;;;;;;;16.62;64.60;97062.75;10401089;28;20033;-30
2022/12/31 23:54:56;;;;;;;1.52;0.93;;;;;;;16.62;64.53;97063.56;10399964;28;20040;-29
2022/12/31 23:59:56;;;;;;;1.60;0.90;;;;;;;16.59;64.04;97045.00;10397872;28;20036;-30
